sensor_id;sensor_type;location;lat;lon;timestamp;temperature;humidity
8231;DHT22;4156;50.908;6.974;2023-02-07T00:01:59;4.70;99.90
8231;DHT22;4156;50.908;6.974;2023-02-07T00:04:24;4.70;99.90
8231;DHT22;4156;50.908;6.974;2023-02-07T00:06:50;4.70;99.90
8231;DHT22;4156;50.908;6.974;2023-02-07T00:09:16;4.60;99.90
8231;DHT22;4156;50.908;6.974;2023-02-07T00:11:41;4.60;99.90
8231;DHT22;4156;50.908;6.974;2023-02-07T00:14:09;4.60;99.90
8231;DHT22;4156;50.908;6.974;2023-02-07T00:16:35;4.60;99.90
8231;DHT22;4156;50.908;6.974;2023-02-07T00:19:01;4.50;99.90
8231;DHT22;4156;50.908;6.974;2023-02-07T00:21:27;4.50;99.90
8231;DHT22;4156;50.908;6.974;2023-02-07T00:23:53;4.50;99.90
8231;DHT22;4156;50.908;6.974;2023-02-07T00:26:21;4.50;99.90
8231;DHT22;4156;50.908;6.974;2023-02-07T00:28:48;4.40;99.90
8231;DHT22;4156;50.908;6.974;2023-02-07T00:31:19;4.40;99.90
8231;DHT22;4156;50.908;6.974;2023-02-07T00:33:46;4.40;99.90
8231;DHT22;4156;50.908;6.974;2023-02-07T00:36:17;4.40;99.90
8231;DHT22;4156;50.908;6.974;2023-02-07T00:38:44;4.40;99.90
8231;DHT22;4156;50.908;6.974;2023-02-07T00:41:11;4.30;99.90
8231;DHT22;4156;50.908;6.974;2023-02-07T00:43:42;4.30;99.90
8231;DHT22;4156;50.908;6.974;2023-02-07T00:46:09;4.30;99.90
8231;DHT22;4156;50.908;6.974;2023-02-07T00:48:35;4.30;99.90
8231;DHT22;4156;50.908;6.974;2023-02-07T00:51:01;4.30;99.90
8231;DHT22;4156;50.908;6.974;2023-02-07T00:53:28;4.20;99.90
8231;DHT22;4156;50.908;6.974;2023-02-07T00:55:54;4.20;99.90
8231;DHT22;4156;50.908;6.974;2023-02-07T00:58:20;4.20;99.90
8231;DHT22;4156;50.908;6.974;2023-02-07T01:00:46;4.20;99.90
8231;DHT22;4156;50.908;6.974;2023-02-07T01:03:11;4.20;99.90
8231;DHT22;4156;50.908;6.974;2023-02-07T01:05:37;4.10;99.90
8231;DHT22;4156;50.908;6.974;2023-02-07T01:08:03;4.10;99.90
8231;DHT22;4156;50.908;6.974;2023-02-07T01:10:28;4.10;99.90
8231;DHT22;4156;50.908;6.974;2023-02-07T01:12:54;4.10;99.90
8231;DHT22;4156;50.908;6.974;2023-02-07T01:15:20;4.10;99.90
8231;DHT22;4156;50.908;6.974;2023-02-07T01:17:45;4.10;99.90
8231;DHT22;4156;50.908;6.974;2023-02-07T01:20:11;4.10;99.90
8231;DHT22;4156;50.908;6.974;2023-02-07T01:22:37;4.00;99.90
8231;DHT22;4156;50.908;6.974;2023-02-07T01:25:04;4.00;99.90
8231;DHT22;4156;50.908;6.974;2023-02-07T01:27:30;4.00;99.90
8231;DHT22;4156;50.908;6.974;2023-02-07T01:29:56;3.90;99.90
8231;DHT22;4156;50.908;6.974;2023-02-07T01:32:22;3.90;99.90
8231;DHT22;4156;50.908;6.974;2023-02-07T01:34:47;3.90;99.90
8231;DHT22;4156;50.908;6.974;2023-02-07T01:37:13;3.90;99.90
8231;DHT22;4156;50.908;6.974;2023-02-07T01:39:38;3.90;99.90
8231;DHT22;4156;50.908;6.974;2023-02-07T01:42:04;3.80;99.90
8231;DHT22;4156;50.908;6.974;2023-02-07T01:47:01;3.80;99.90
8231;DHT22;4156;50.908;6.974;2023-02-07T01:49:31;3.80;99.90
8231;DHT22;4156;50.908;6.974;2023-02-07T01:52:10;3.80;99.90
8231;DHT22;4156;50.908;6.974;2023-02-07T01:54:37;3.80;99.90
8231;DHT22;4156;50.908;6.974;2023-02-07T01:57:06;3.80;99.90
8231;DHT22;4156;50.908;6.974;2023-02-07T01:59:33;3.70;99.90
8231;DHT22;4156;50.908;6.974;2023-02-07T02:02:01;3.70;99.90
8231;DHT22;4156;50.908;6.974;2023-02-07T02:04:28;3.70;99.90
8231;DHT22;4156;50.908;6.974;2023-02-07T02:06:55;3.70;99.90
8231;DHT22;4156;50.908;6.974;2023-02-07T02:09:21;3.70;99.90
8231;DHT22;4156;50.908;6.974;2023-02-07T02:17:48;3.70;99.90
8231;DHT22;4156;50.908;6.974;2023-02-07T02:31:17;3.60;99.90
8231;DHT22;4156;50.908;6.974;2023-02-07T02:36:56;3.50;99.90
8231;DHT22;4156;50.908;6.974;2023-02-07T02:39:49;3.50;99.90
8231;DHT22;4156;50.908;6.974;2023-02-07T02:45:24;3.50;99.90
8231;DHT22;4156;50.908;6.974;2023-02-07T02:47:52;3.40;99.90
8231;DHT22;4156;50.908;6.974;2023-02-07T02:50:22;3.40;99.90
8231;DHT22;4156;50.908;6.974;2023-02-07T02:52:48;3.40;99.90
8231;DHT22;4156;50.908;6.974;2023-02-07T02:55:14;3.40;99.90
8231;DHT22;4156;50.908;6.974;2023-02-07T02:58:10;3.30;99.90
8231;DHT22;4156;50.908;6.974;2023-02-07T03:08:44;3.30;99.90
8231;DHT22;4156;50.908;6.974;2023-02-07T03:11:14;3.20;99.90
8231;DHT22;4156;50.908;6.974;2023-02-07T03:16:21;3.20;99.90
8231;DHT22;4156;50.908;6.974;2023-02-07T03:19:03;3.20;99.90
8231;DHT22;4156;50.908;6.974;2023-02-07T03:21:49;3.10;99.90
8231;DHT22;4156;50.908;6.974;2023-02-07T03:24:21;3.10;99.90
8231;DHT22;4156;50.908;6.974;2023-02-07T03:26:50;2.50;99.90
8231;DHT22;4156;50.908;6.974;2023-02-07T03:29:19;3.10;99.90
8231;DHT22;4156;50.908;6.974;2023-02-07T03:31:47;3.10;99.90
8231;DHT22;4156;50.908;6.974;2023-02-07T03:34:21;3.10;99.90
8231;DHT22;4156;50.908;6.974;2023-02-07T03:36:56;3.10;99.90
8231;DHT22;4156;50.908;6.974;2023-02-07T03:39:23;3.10;99.90
8231;DHT22;4156;50.908;6.974;2023-02-07T03:41:55;3.00;99.90
8231;DHT22;4156;50.908;6.974;2023-02-07T03:44:24;3.00;99.90
8231;DHT22;4156;50.908;6.974;2023-02-07T03:46:50;3.00;99.90
8231;DHT22;4156;50.908;6.974;2023-02-07T03:49:16;3.00;99.90
8231;DHT22;4156;50.908;6.974;2023-02-07T03:51:43;3.00;99.90
8231;DHT22;4156;50.908;6.974;2023-02-07T03:54:09;3.00;99.90
8231;DHT22;4156;50.908;6.974;2023-02-07T03:56:35;3.00;99.90
8231;DHT22;4156;50.908;6.974;2023-02-07T03:59:01;3.00;99.90
8231;DHT22;4156;50.908;6.974;2023-02-07T04:01:27;3.00;99.90
8231;DHT22;4156;50.908;6.974;2023-02-07T04:03:52;3.00;99.90
8231;DHT22;4156;50.908;6.974;2023-02-07T04:06:18;3.00;99.90
8231;DHT22;4156;50.908;6.974;2023-02-07T04:08:43;3.00;99.90
8231;DHT22;4156;50.908;6.974;2023-02-07T04:11:09;2.90;99.90
8231;DHT22;4156;50.908;6.974;2023-02-07T04:13:34;2.90;99.90
8231;DHT22;4156;50.908;6.974;2023-02-07T04:16:00;2.90;99.90
8231;DHT22;4156;50.908;6.974;2023-02-07T04:18:25;2.90;99.90
8231;DHT22;4156;50.908;6.974;2023-02-07T04:20:51;2.90;99.90
8231;DHT22;4156;50.908;6.974;2023-02-07T04:23:16;2.90;99.90
8231;DHT22;4156;50.908;6.974;2023-02-07T04:25:42;2.90;99.90
8231;DHT22;4156;50.908;6.974;2023-02-07T04:28:08;2.90;99.90
8231;DHT22;4156;50.908;6.974;2023-02-07T04:30:33;2.90;99.90
8231;DHT22;4156;50.908;6.974;2023-02-07T04:32:59;2.90;99.90
8231;DHT22;4156;50.908;6.974;2023-02-07T04:35:24;2.90;99.90
8231;DHT22;4156;50.908;6.974;2023-02-07T04:37:50;2.90;99.90
8231;DHT22;4156;50.908;6.974;2023-02-07T04:40:15;2.90;99.90
8231;DHT22;4156;50.908;6.974;2023-02-07T04:42:41;2.80;99.90
8231;DHT22;4156;50.908;6.974;2023-02-07T04:45:07;2.80;99.90
8231;DHT22;4156;50.908;6.974;2023-02-07T04:47:32;2.80;99.90
8231;DHT22;4156;50.908;6.974;2023-02-07T04:49:58;2.80;99.90
8231;DHT22;4156;50.908;6.974;2023-02-07T04:52:23;2.80;99.90
8231;DHT22;4156;50.908;6.974;2023-02-07T04:54:49;2.80;99.90
8231;DHT22;4156;50.908;6.974;2023-02-07T04:57:15;2.80;99.90
8231;DHT22;4156;50.908;6.974;2023-02-07T04:59:40;2.80;99.90
8231;DHT22;4156;50.908;6.974;2023-02-07T05:02:06;2.80;99.90
8231;DHT22;4156;50.908;6.974;2023-02-07T05:04:31;2.70;99.90
8231;DHT22;4156;50.908;6.974;2023-02-07T05:06:57;2.70;99.90
8231;DHT22;4156;50.908;6.974;2023-02-07T05:09:22;2.70;99.90
8231;DHT22;4156;50.908;6.974;2023-02-07T05:11:48;2.70;99.90
8231;DHT22;4156;50.908;6.974;2023-02-07T05:14:14;2.70;99.90
8231;DHT22;4156;50.908;6.974;2023-02-07T05:16:39;2.70;99.90
8231;DHT22;4156;50.908;6.974;2023-02-07T05:19:05;2.70;99.90
8231;DHT22;4156;50.908;6.974;2023-02-07T05:21:31;2.70;99.90
8231;DHT22;4156;50.908;6.974;2023-02-07T05:23:56;2.60;99.90
8231;DHT22;4156;50.908;6.974;2023-02-07T05:26:22;2.70;99.90
8231;DHT22;4156;50.908;6.974;2023-02-07T05:28:47;2.70;99.90
8231;DHT22;4156;50.908;6.974;2023-02-07T05:31:13;2.60;99.90
8231;DHT22;4156;50.908;6.974;2023-02-07T05:33:38;2.60;99.90
8231;DHT22;4156;50.908;6.974;2023-02-07T05:36:04;2.60;99.90
8231;DHT22;4156;50.908;6.974;2023-02-07T05:38:29;2.60;99.90
8231;DHT22;4156;50.908;6.974;2023-02-07T05:40:55;2.60;99.90
8231;DHT22;4156;50.908;6.974;2023-02-07T05:43:21;2.60;99.90
8231;DHT22;4156;50.908;6.974;2023-02-07T05:45:46;2.50;99.90
8231;DHT22;4156;50.908;6.974;2023-02-07T05:48:12;2.50;99.90
8231;DHT22;4156;50.908;6.974;2023-02-07T05:50:38;2.50;99.90
8231;DHT22;4156;50.908;6.974;2023-02-07T05:53:05;2.50;99.90
8231;DHT22;4156;50.908;6.974;2023-02-07T05:55:31;2.50;99.90
8231;DHT22;4156;50.908;6.974;2023-02-07T05:57:57;2.50;99.90
8231;DHT22;4156;50.908;6.974;2023-02-07T06:00:23;2.50;99.90
8231;DHT22;4156;50.908;6.974;2023-02-07T06:02:48;2.50;99.90
8231;DHT22;4156;50.908;6.974;2023-02-07T06:05:16;2.50;99.90
8231;DHT22;4156;50.908;6.974;2023-02-07T06:07:42;2.50;99.90
8231;DHT22;4156;50.908;6.974;2023-02-07T06:10:09;2.50;99.90
8231;DHT22;4156;50.908;6.974;2023-02-07T06:12:35;2.50;99.90
8231;DHT22;4156;50.908;6.974;2023-02-07T06:15:01;2.50;99.90
8231;DHT22;4156;50.908;6.974;2023-02-07T06:17:27;2.50;99.90
8231;DHT22;4156;50.908;6.974;2023-02-07T06:19:52;2.50;99.90
8231;DHT22;4156;50.908;6.974;2023-02-07T06:22:18;2.50;99.90
8231;DHT22;4156;50.908;6.974;2023-02-07T06:24:44;2.40;99.90
8231;DHT22;4156;50.908;6.974;2023-02-07T06:27:10;2.40;99.90
8231;DHT22;4156;50.908;6.974;2023-02-07T06:29:36;2.40;99.90
8231;DHT22;4156;50.908;6.974;2023-02-07T06:32:01;2.40;99.90
8231;DHT22;4156;50.908;6.974;2023-02-07T06:34:27;2.40;99.90
8231;DHT22;4156;50.908;6.974;2023-02-07T06:36:53;2.40;99.90
8231;DHT22;4156;50.908;6.974;2023-02-07T06:39:18;2.40;99.90
8231;DHT22;4156;50.908;6.974;2023-02-07T06:41:44;2.40;99.90
8231;DHT22;4156;50.908;6.974;2023-02-07T06:44:10;2.40;99.90
8231;DHT22;4156;50.908;6.974;2023-02-07T06:46:35;2.40;99.90
8231;DHT22;4156;50.908;6.974;2023-02-07T06:49:01;2.40;99.90
8231;DHT22;4156;50.908;6.974;2023-02-07T06:51:27;2.40;99.90
8231;DHT22;4156;50.908;6.974;2023-02-07T06:53:52;2.40;99.90
8231;DHT22;4156;50.908;6.974;2023-02-07T06:56:18;2.40;99.90
8231;DHT22;4156;50.908;6.974;2023-02-07T06:58:43;2.40;99.90
8231;DHT22;4156;50.908;6.974;2023-02-07T07:01:09;2.30;99.90
8231;DHT22;4156;50.908;6.974;2023-02-07T07:03:34;2.30;99.90
8231;DHT22;4156;50.908;6.974;2023-02-07T07:06:00;2.30;99.90
8231;DHT22;4156;50.908;6.974;2023-02-07T07:08:26;2.30;99.90
8231;DHT22;4156;50.908;6.974;2023-02-07T07:10:52;2.30;99.90
8231;DHT22;4156;50.908;6.974;2023-02-07T07:13:18;2.30;99.90
8231;DHT22;4156;50.908;6.974;2023-02-07T07:15:45;2.30;99.90
8231;DHT22;4156;50.908;6.974;2023-02-07T07:18:11;2.30;99.90
8231;DHT22;4156;50.908;6.974;2023-02-07T07:20:36;2.30;99.90
8231;DHT22;4156;50.908;6.974;2023-02-07T07:23:02;2.30;99.90
8231;DHT22;4156;50.908;6.974;2023-02-07T07:25:28;2.30;99.90
8231;DHT22;4156;50.908;6.974;2023-02-07T07:27:53;2.30;99.90
8231;DHT22;4156;50.908;6.974;2023-02-07T07:30:19;2.20;99.90
8231;DHT22;4156;50.908;6.974;2023-02-07T07:32:45;2.30;99.90
8231;DHT22;4156;50.908;6.974;2023-02-07T07:35:11;2.30;99.90
8231;DHT22;4156;50.908;6.974;2023-02-07T07:37:36;2.30;99.90
8231;DHT22;4156;50.908;6.974;2023-02-07T07:40:02;2.30;99.90
8231;DHT22;4156;50.908;6.974;2023-02-07T07:42:28;2.30;99.90
8231;DHT22;4156;50.908;6.974;2023-02-07T07:44:54;2.30;99.90
8231;DHT22;4156;50.908;6.974;2023-02-07T07:47:19;2.30;99.90
8231;DHT22;4156;50.908;6.974;2023-02-07T07:49:45;2.30;99.90
8231;DHT22;4156;50.908;6.974;2023-02-07T07:52:11;2.30;99.90
8231;DHT22;4156;50.908;6.974;2023-02-07T07:54:36;2.30;99.90
8231;DHT22;4156;50.908;6.974;2023-02-07T07:57:02;2.30;99.90
8231;DHT22;4156;50.908;6.974;2023-02-07T07:59:28;2.30;99.90
8231;DHT22;4156;50.908;6.974;2023-02-07T08:01:53;2.30;99.90
8231;DHT22;4156;50.908;6.974;2023-02-07T08:04:19;2.30;99.90
8231;DHT22;4156;50.908;6.974;2023-02-07T08:06:44;2.30;99.90
8231;DHT22;4156;50.908;6.974;2023-02-07T08:09:10;2.40;99.90
8231;DHT22;4156;50.908;6.974;2023-02-07T08:11:36;2.40;99.90
8231;DHT22;4156;50.908;6.974;2023-02-07T08:14:01;2.50;99.90
8231;DHT22;4156;50.908;6.974;2023-02-07T08:16:27;2.40;99.90
8231;DHT22;4156;50.908;6.974;2023-02-07T08:18:52;2.40;99.90
8231;DHT22;4156;50.908;6.974;2023-02-07T08:21:18;2.40;99.90
8231;DHT22;4156;50.908;6.974;2023-02-07T08:23:43;2.40;99.90
8231;DHT22;4156;50.908;6.974;2023-02-07T08:26:09;2.50;99.90
8231;DHT22;4156;50.908;6.974;2023-02-07T08:28:34;2.50;99.90
8231;DHT22;4156;50.908;6.974;2023-02-07T08:31:02;2.50;99.90
8231;DHT22;4156;50.908;6.974;2023-02-07T08:33:28;2.50;99.90
8231;DHT22;4156;50.908;6.974;2023-02-07T08:35:54;2.50;99.90
8231;DHT22;4156;50.908;6.974;2023-02-07T08:38:20;2.50;99.90
8231;DHT22;4156;50.908;6.974;2023-02-07T08:40:45;2.50;99.90
8231;DHT22;4156;50.908;6.974;2023-02-07T08:43:12;2.50;99.90
8231;DHT22;4156;50.908;6.974;2023-02-07T08:45:44;2.60;99.90
8231;DHT22;4156;50.908;6.974;2023-02-07T08:48:10;2.60;99.90
8231;DHT22;4156;50.908;6.974;2023-02-07T08:50:35;2.60;99.90
8231;DHT22;4156;50.908;6.974;2023-02-07T08:53:01;2.60;99.90
8231;DHT22;4156;50.908;6.974;2023-02-07T08:55:26;2.70;99.90
8231;DHT22;4156;50.908;6.974;2023-02-07T08:57:52;2.70;99.90
8231;DHT22;4156;50.908;6.974;2023-02-07T09:00:18;2.80;99.90
8231;DHT22;4156;50.908;6.974;2023-02-07T09:02:43;2.80;99.90
8231;DHT22;4156;50.908;6.974;2023-02-07T09:05:10;2.80;99.90
8231;DHT22;4156;50.908;6.974;2023-02-07T09:07:36;2.90;99.90
8231;DHT22;4156;50.908;6.974;2023-02-07T09:10:02;2.90;99.90
8231;DHT22;4156;50.908;6.974;2023-02-07T09:12:29;2.90;99.90
8231;DHT22;4156;50.908;6.974;2023-02-07T09:14:55;3.00;99.90
8231;DHT22;4156;50.908;6.974;2023-02-07T09:17:21;3.00;99.90
8231;DHT22;4156;50.908;6.974;2023-02-07T09:19:46;3.00;99.90
8231;DHT22;4156;50.908;6.974;2023-02-07T09:22:12;3.10;99.90
8231;DHT22;4156;50.908;6.974;2023-02-07T09:24:38;3.10;99.90
8231;DHT22;4156;50.908;6.974;2023-02-07T09:27:03;3.10;99.90
8231;DHT22;4156;50.908;6.974;2023-02-07T09:29:29;3.20;99.90
8231;DHT22;4156;50.908;6.974;2023-02-07T09:31:54;3.20;99.90
8231;DHT22;4156;50.908;6.974;2023-02-07T09:34:20;3.30;99.90
8231;DHT22;4156;50.908;6.974;2023-02-07T09:36:45;3.30;99.90
8231;DHT22;4156;50.908;6.974;2023-02-07T09:39:11;3.30;99.90
8231;DHT22;4156;50.908;6.974;2023-02-07T09:41:52;3.40;99.90
8231;DHT22;4156;50.908;6.974;2023-02-07T09:44:56;3.40;99.90
8231;DHT22;4156;50.908;6.974;2023-02-07T09:47:24;3.60;99.90
8231;DHT22;4156;50.908;6.974;2023-02-07T09:53:09;3.40;99.90
8231;DHT22;4156;50.908;6.974;2023-02-07T09:55:43;3.40;99.90
8231;DHT22;4156;50.908;6.974;2023-02-07T09:58:17;3.40;99.90
8231;DHT22;4156;50.908;6.974;2023-02-07T10:00:51;3.40;99.90
8231;DHT22;4156;50.908;6.974;2023-02-07T10:03:24;3.50;99.90
8231;DHT22;4156;50.908;6.974;2023-02-07T10:06:07;3.50;99.90
8231;DHT22;4156;50.908;6.974;2023-02-07T10:08:35;3.50;99.90
8231;DHT22;4156;50.908;6.974;2023-02-07T10:21:04;3.60;99.90
8231;DHT22;4156;50.908;6.974;2023-02-07T10:27:11;3.60;99.90
8231;DHT22;4156;50.908;6.974;2023-02-07T10:32:35;3.70;99.90
8231;DHT22;4156;50.908;6.974;2023-02-07T10:35:30;3.70;99.90
8231;DHT22;4156;50.908;6.974;2023-02-07T10:38:43;3.70;99.90
8231;DHT22;4156;50.908;6.974;2023-02-07T10:41:28;3.70;99.90
8231;DHT22;4156;50.908;6.974;2023-02-07T10:44:19;3.70;99.90
8231;DHT22;4156;50.908;6.974;2023-02-07T10:47:03;3.70;99.90
8231;DHT22;4156;50.908;6.974;2023-02-07T10:49:37;3.70;99.90
8231;DHT22;4156;50.908;6.974;2023-02-07T10:52:39;3.70;99.90
8231;DHT22;4156;50.908;6.974;2023-02-07T10:55:19;3.70;99.90
8231;DHT22;4156;50.908;6.974;2023-02-07T10:58:37;3.80;99.90
8231;DHT22;4156;50.908;6.974;2023-02-07T11:01:30;3.80;99.90
8231;DHT22;4156;50.908;6.974;2023-02-07T11:07:24;3.80;99.90
8231;DHT22;4156;50.908;6.974;2023-02-07T11:10:22;3.80;99.90
8231;DHT22;4156;50.908;6.974;2023-02-07T11:12:54;3.90;99.90
8231;DHT22;4156;50.908;6.974;2023-02-07T11:18:40;3.90;99.90
8231;DHT22;4156;50.908;6.974;2023-02-07T11:27:32;3.90;99.90
8231;DHT22;4156;50.908;6.974;2023-02-07T11:30:21;3.90;99.90
8231;DHT22;4156;50.908;6.974;2023-02-07T12:17:37;4.10;99.90
8231;DHT22;4156;50.908;6.974;2023-02-07T14:03:38;4.60;99.90
8231;DHT22;4156;50.908;6.974;2023-02-07T14:40:50;4.70;99.90
8231;DHT22;4156;50.908;6.974;2023-02-07T15:01:01;4.80;99.90
8231;DHT22;4156;50.908;6.974;2023-02-07T15:09:56;4.90;99.90
8231;DHT22;4156;50.908;6.974;2023-02-07T15:12:25;4.90;99.90
8231;DHT22;4156;50.908;6.974;2023-02-07T15:14:54;4.90;99.90
8231;DHT22;4156;50.908;6.974;2023-02-07T15:17:25;4.90;99.90
8231;DHT22;4156;50.908;6.974;2023-02-07T15:19:52;5.00;99.90
8231;DHT22;4156;50.908;6.974;2023-02-07T15:22:27;5.00;99.90
8231;DHT22;4156;50.908;6.974;2023-02-07T15:24:57;5.00;99.90
8231;DHT22;4156;50.908;6.974;2023-02-07T15:27:26;5.00;99.90
8231;DHT22;4156;50.908;6.974;2023-02-07T15:30:03;5.00;99.90
8231;DHT22;4156;50.908;6.974;2023-02-07T15:32:33;5.00;99.90
8231;DHT22;4156;50.908;6.974;2023-02-07T15:35:17;5.00;99.90
8231;DHT22;4156;50.908;6.974;2023-02-07T15:37:43;5.10;99.90
8231;DHT22;4156;50.908;6.974;2023-02-07T15:40:13;5.10;99.90
8231;DHT22;4156;50.908;6.974;2023-02-07T15:42:49;5.10;99.90
8231;DHT22;4156;50.908;6.974;2023-02-07T15:45:29;5.10;99.90
8231;DHT22;4156;50.908;6.974;2023-02-07T15:48:05;5.10;99.90
8231;DHT22;4156;50.908;6.974;2023-02-07T15:50:34;5.20;99.90
8231;DHT22;4156;50.908;6.974;2023-02-07T15:53:02;5.20;99.90
8231;DHT22;4156;50.908;6.974;2023-02-07T15:55:40;5.20;99.90
8231;DHT22;4156;50.908;6.974;2023-02-07T15:58:07;5.20;99.90
8231;DHT22;4156;50.908;6.974;2023-02-07T16:00:39;5.20;99.90
8231;DHT22;4156;50.908;6.974;2023-02-07T16:03:26;5.20;99.90
8231;DHT22;4156;50.908;6.974;2023-02-07T16:06:18;5.20;99.90
8231;DHT22;4156;50.908;6.974;2023-02-07T16:08:49;5.20;99.90
8231;DHT22;4156;50.908;6.974;2023-02-07T16:11:34;5.20;99.90
8231;DHT22;4156;50.908;6.974;2023-02-07T16:14:18;5.20;99.90
8231;DHT22;4156;50.908;6.974;2023-02-07T16:16:53;5.20;99.90
8231;DHT22;4156;50.908;6.974;2023-02-07T16:19:27;5.20;99.90
8231;DHT22;4156;50.908;6.974;2023-02-07T16:22:10;5.20;99.90
8231;DHT22;4156;50.908;6.974;2023-02-07T16:24:39;5.20;99.90
8231;DHT22;4156;50.908;6.974;2023-02-07T16:27:05;5.20;99.90
8231;DHT22;4156;50.908;6.974;2023-02-07T16:29:33;5.20;99.90
8231;DHT22;4156;50.908;6.974;2023-02-07T16:31:58;5.30;99.90
8231;DHT22;4156;50.908;6.974;2023-02-07T16:34:24;5.20;99.90
8231;DHT22;4156;50.908;6.974;2023-02-07T16:36:54;5.30;99.90
8231;DHT22;4156;50.908;6.974;2023-02-07T16:39:20;5.30;99.90
8231;DHT22;4156;50.908;6.974;2023-02-07T16:41:50;5.30;99.90
8231;DHT22;4156;50.908;6.974;2023-02-07T16:44:20;5.30;99.90
8231;DHT22;4156;50.908;6.974;2023-02-07T16:46:47;5.30;99.90
8231;DHT22;4156;50.908;6.974;2023-02-07T16:49:19;5.30;99.90
8231;DHT22;4156;50.908;6.974;2023-02-07T16:51:45;5.20;99.90
8231;DHT22;4156;50.908;6.974;2023-02-07T16:54:11;5.30;99.90
8231;DHT22;4156;50.908;6.974;2023-02-07T16:56:37;5.30;99.90
8231;DHT22;4156;50.908;6.974;2023-02-07T16:59:03;5.30;99.90
8231;DHT22;4156;50.908;6.974;2023-02-07T17:01:29;5.30;99.90
8231;DHT22;4156;50.908;6.974;2023-02-07T17:03:55;5.30;99.90
8231;DHT22;4156;50.908;6.974;2023-02-07T17:06:22;5.30;99.90
8231;DHT22;4156;50.908;6.974;2023-02-07T17:08:49;5.30;99.90
8231;DHT22;4156;50.908;6.974;2023-02-07T17:11:17;5.30;99.90
8231;DHT22;4156;50.908;6.974;2023-02-07T17:13:53;5.30;99.90
8231;DHT22;4156;50.908;6.974;2023-02-07T17:16:20;5.30;99.90
8231;DHT22;4156;50.908;6.974;2023-02-07T17:18:46;5.30;99.90
8231;DHT22;4156;50.908;6.974;2023-02-07T17:21:11;5.30;99.90
8231;DHT22;4156;50.908;6.974;2023-02-07T17:23:39;5.30;99.90
8231;DHT22;4156;50.908;6.974;2023-02-07T17:26:08;5.30;99.90
8231;DHT22;4156;50.908;6.974;2023-02-07T17:28:34;5.30;99.90
8231;DHT22;4156;50.908;6.974;2023-02-07T17:31:01;5.30;99.90
8231;DHT22;4156;50.908;6.974;2023-02-07T17:33:27;5.30;99.90
8231;DHT22;4156;50.908;6.974;2023-02-07T17:35:52;5.30;99.90
8231;DHT22;4156;50.908;6.974;2023-02-07T17:38:18;5.30;99.90
8231;DHT22;4156;50.908;6.974;2023-02-07T17:40:43;5.30;99.90
8231;DHT22;4156;50.908;6.974;2023-02-07T17:43:09;5.30;99.90
8231;DHT22;4156;50.908;6.974;2023-02-07T17:45:36;5.30;99.90
8231;DHT22;4156;50.908;6.974;2023-02-07T17:48:02;5.30;99.90
8231;DHT22;4156;50.908;6.974;2023-02-07T17:50:34;5.30;99.90
8231;DHT22;4156;50.908;6.974;2023-02-07T17:53:00;5.30;99.90
8231;DHT22;4156;50.908;6.974;2023-02-07T17:55:27;5.30;99.90
8231;DHT22;4156;50.908;6.974;2023-02-07T17:57:52;5.30;99.90
8231;DHT22;4156;50.908;6.974;2023-02-07T18:00:24;5.20;99.90
8231;DHT22;4156;50.908;6.974;2023-02-07T18:02:50;5.20;99.90
8231;DHT22;4156;50.908;6.974;2023-02-07T18:05:16;5.20;99.90
8231;DHT22;4156;50.908;6.974;2023-02-07T18:07:46;5.20;99.90
8231;DHT22;4156;50.908;6.974;2023-02-07T18:10:24;5.20;99.90
8231;DHT22;4156;50.908;6.974;2023-02-07T18:12:50;5.20;99.90
8231;DHT22;4156;50.908;6.974;2023-02-07T18:15:15;5.10;99.90
8231;DHT22;4156;50.908;6.974;2023-02-07T18:17:43;5.10;99.90
8231;DHT22;4156;50.908;6.974;2023-02-07T18:20:16;5.10;99.90
8231;DHT22;4156;50.908;6.974;2023-02-07T18:22:42;5.10;99.90
8231;DHT22;4156;50.908;6.974;2023-02-07T18:25:08;5.00;99.90
8231;DHT22;4156;50.908;6.974;2023-02-07T18:27:34;5.10;99.90
8231;DHT22;4156;50.908;6.974;2023-02-07T18:30:00;5.00;99.90
8231;DHT22;4156;50.908;6.974;2023-02-07T18:32:26;5.00;99.90
8231;DHT22;4156;50.908;6.974;2023-02-07T18:34:51;5.00;99.90
8231;DHT22;4156;50.908;6.974;2023-02-07T18:37:17;5.00;99.90
8231;DHT22;4156;50.908;6.974;2023-02-07T18:39:42;5.00;99.90
8231;DHT22;4156;50.908;6.974;2023-02-07T18:42:08;5.00;99.90
8231;DHT22;4156;50.908;6.974;2023-02-07T18:44:33;5.00;99.90
8231;DHT22;4156;50.908;6.974;2023-02-07T18:46:59;5.00;99.90
8231;DHT22;4156;50.908;6.974;2023-02-07T18:49:25;5.00;99.90
8231;DHT22;4156;50.908;6.974;2023-02-07T18:51:52;5.00;99.90
8231;DHT22;4156;50.908;6.974;2023-02-07T18:54:18;5.00;99.90
8231;DHT22;4156;50.908;6.974;2023-02-07T18:56:43;4.90;99.90
8231;DHT22;4156;50.908;6.974;2023-02-07T18:59:17;4.90;99.90
8231;DHT22;4156;50.908;6.974;2023-02-07T19:01:42;4.90;99.90
8231;DHT22;4156;50.908;6.974;2023-02-07T19:04:15;4.90;99.90
8231;DHT22;4156;50.908;6.974;2023-02-07T19:06:41;4.90;99.90
8231;DHT22;4156;50.908;6.974;2023-02-07T19:09:07;4.90;99.90
8231;DHT22;4156;50.908;6.974;2023-02-07T19:11:34;4.90;99.90
8231;DHT22;4156;50.908;6.974;2023-02-07T19:14:00;4.80;99.90
8231;DHT22;4156;50.908;6.974;2023-02-07T19:16:27;4.80;99.90
8231;DHT22;4156;50.908;6.974;2023-02-07T19:18:55;4.80;99.90
8231;DHT22;4156;50.908;6.974;2023-02-07T19:21:22;4.80;99.90
8231;DHT22;4156;50.908;6.974;2023-02-07T19:23:52;4.80;99.90
8231;DHT22;4156;50.908;6.974;2023-02-07T19:26:18;4.80;99.90
8231;DHT22;4156;50.908;6.974;2023-02-07T19:28:44;4.80;99.90
8231;DHT22;4156;50.908;6.974;2023-02-07T19:31:12;4.80;99.90
8231;DHT22;4156;50.908;6.974;2023-02-07T19:33:45;4.80;99.90
8231;DHT22;4156;50.908;6.974;2023-02-07T19:36:13;4.80;99.90
8231;DHT22;4156;50.908;6.974;2023-02-07T19:38:39;4.80;99.90
8231;DHT22;4156;50.908;6.974;2023-02-07T19:41:05;4.70;99.90
8231;DHT22;4156;50.908;6.974;2023-02-07T19:43:31;4.70;99.90
8231;DHT22;4156;50.908;6.974;2023-02-07T19:45:56;4.70;99.90
8231;DHT22;4156;50.908;6.974;2023-02-07T19:48:22;4.70;99.90
8231;DHT22;4156;50.908;6.974;2023-02-07T19:50:57;4.70;99.90
8231;DHT22;4156;50.908;6.974;2023-02-07T19:53:23;4.60;99.90
8231;DHT22;4156;50.908;6.974;2023-02-07T19:55:48;4.60;99.90
8231;DHT22;4156;50.908;6.974;2023-02-07T19:58:14;4.60;99.90
8231;DHT22;4156;50.908;6.974;2023-02-07T20:00:39;4.60;99.90
8231;DHT22;4156;50.908;6.974;2023-02-07T20:03:05;4.50;99.90
8231;DHT22;4156;50.908;6.974;2023-02-07T20:05:30;4.50;99.90
8231;DHT22;4156;50.908;6.974;2023-02-07T20:07:57;4.50;99.90
8231;DHT22;4156;50.908;6.974;2023-02-07T20:10:23;4.50;99.90
8231;DHT22;4156;50.908;6.974;2023-02-07T20:12:48;4.50;99.90
8231;DHT22;4156;50.908;6.974;2023-02-07T20:15:14;4.50;99.90
8231;DHT22;4156;50.908;6.974;2023-02-07T20:17:39;4.50;99.90
8231;DHT22;4156;50.908;6.974;2023-02-07T20:20:05;4.50;99.90
8231;DHT22;4156;50.908;6.974;2023-02-07T20:22:31;4.50;99.90
8231;DHT22;4156;50.908;6.974;2023-02-07T20:24:57;4.40;99.90
8231;DHT22;4156;50.908;6.974;2023-02-07T20:27:22;4.40;99.90
8231;DHT22;4156;50.908;6.974;2023-02-07T20:29:51;4.40;99.90
8231;DHT22;4156;50.908;6.974;2023-02-07T20:32:17;4.40;99.90
8231;DHT22;4156;50.908;6.974;2023-02-07T20:34:43;4.40;99.90
8231;DHT22;4156;50.908;6.974;2023-02-07T20:37:09;4.40;99.90
8231;DHT22;4156;50.908;6.974;2023-02-07T20:39:36;4.40;99.90
8231;DHT22;4156;50.908;6.974;2023-02-07T20:42:02;4.40;99.90
8231;DHT22;4156;50.908;6.974;2023-02-07T20:44:28;4.40;99.90
8231;DHT22;4156;50.908;6.974;2023-02-07T20:46:55;4.30;99.90
8231;DHT22;4156;50.908;6.974;2023-02-07T20:49:24;4.30;99.90
8231;DHT22;4156;50.908;6.974;2023-02-07T20:51:51;4.30;99.90
8231;DHT22;4156;50.908;6.974;2023-02-07T20:54:19;4.30;99.90
8231;DHT22;4156;50.908;6.974;2023-02-07T20:56:45;4.30;99.90
8231;DHT22;4156;50.908;6.974;2023-02-07T20:59:22;4.30;99.90
8231;DHT22;4156;50.908;6.974;2023-02-07T21:01:48;4.30;99.90